x

San Francisco - 18nm West Of San Francisco, Ca (46026) Wave Buoy

11:50am - Sun 4th Dec 2016 All times are PST. -8 hours from GMT.

  • Sig Wave height 9.8ft
  • Swell Direction
  • Peak Period 15s
  • Average Period 9s
  • Wind
    13mph, 18mph gusts
  • Sea Temp 55°f
  • Air Temp 54°f
  • Sea Pressure 1021.7mb
  • San Francisco - 18nm West Of San Francisco, Ca
  • San Francisco - 18nm West Of San Francisco, Ca

More Historic Weather Station data

Upgrade to MSW Pro to gain access to the past 30 days of data for over 8000 Wavebouys and Weather Stations around the globe.

Join Pro

Comparision Forecast

View Surf forecast
   
Sun 12/04 11:50am 10ft 15s 9s 13 18 mph 1021.7mb 55f 54f
10:50am 8ft 16s 8s 11 13 mph 1022.7mb 55f 54f
8:50am 10ft 15s 9s 9 11 mph 1022.5mb 55f 54f
7:50am 11ft 16s 9s 9 11 mph 1022.2mb 55f 54f
6:50am 12ft 15s 10s 11 13 mph 1021.8mb 55f 54f
5:50am 11.5ft 15s 9s 7 9 mph 1021.3mb 55f 53f
4:50am 11ft 15s 9s 9 11 mph 1021.2mb 55f 54f
3:50am 11ft 15s 9s 9 11 mph 1021.4mb 55f 54f
2:50am 11ft 16s 9s 11 13 mph 1021.5mb 55f 54f
1:50am 12ft 16s 9s 13 16 mph 1021.5mb 55f 54f
12:50am 11.5ft 16s 9s 18 20 mph 1021.8mb 55f 54f
Sat 12/03 11:50pm 11ft 16s 9s 13 18 mph 1022.3mb 55f 54f
10:50pm 10.5ft 17s 8s 16 20 mph 1022.4mb 55f 54f
9:50pm 11ft 16s 9s 13 18 mph 1022.2mb 55f 55f
8:50pm 10ft 17s 8s 16 18 mph 1022.2mb 55f 55f
7:50pm 10ft 17s 8s 18 25 mph 1021.8mb 55f 55f
6:50pm 10ft 17s 8s 20 25 mph 1021.8mb 55f 55f
5:50pm 9ft 19s 7s 20 27 mph 1021.8mb 55f 55f
3:50pm 9ft 19s 7s 20 25 mph 1022.3mb 55f 55f
2:50pm 9ft 19s 8s 20 25 mph 1022.4mb 55f 55f
1:50pm 9.5ft 19s 8s 20 22 mph 1022.7mb 55f 55f
12:50pm 8ft 19s 8s 20 25 mph 1023.4mb 55f 54f
11:50am 8ft 19s 8s 13 16 mph 1024.5mb 55f 55f
10:50am 9ft 19s 8s 9 13 mph 1025.3mb 55f 55f
9:50am 8ft 19s 8s 9 11 mph 1025.5mb 55f 55f
8:50am 8ft 8s 7s 11 13 mph 1025.2mb 55f 55f
7:50am 8ft 12s 8s 11 16 mph 1024.8mb 55f 54f
6:50am 9ft 8s 8s 13 16 mph 1024.5mb 55f 54f
5:50am 9ft 19s 8s 16 18 mph 1024.1mb 55f 54f
4:50am 9ft 19s 7s 16 18 mph 1023.6mb 55f 55f
3:50am 8ft 11s 7s 20 25 mph 1023.5mb 55f 55f
2:50am 8ft 12s 7s 16 20 mph 1023.5mb 55f 55f
1:50am 8ft 9s 7s 13 18 mph 1023.4mb 55f 55f
12:50am 8ft 11s 7s 18 22 mph 1023.3mb 55f 55f
Fri 12/02 11:50pm 7.5ft 11s 7s 16 20 mph 1023.4mb 55f 55f
10:50pm 7ft 7s 7s 18 20 mph 1023.4mb 55f 55f
9:50pm 7.5ft 11s 7s 18 20 mph 1023.2mb 55f 55f
8:50pm 7ft 11s 7s 18 22 mph 1023.1mb 55f 55f
7:50pm 7ft 11s 7s 13 18 mph 1023mb 55f 55f
6:50pm 6.5ft 11s 7s 13 16 mph 1023mb 55f 55f
5:50pm 6.5ft 11s 7s 16 18 mph 1022.9mb 55f 55f
4:50pm 6.5ft 12s 7s 18 20 mph 1022.7mb 55f 55f
3:50pm 6ft 11s 6s 22 25 mph 1022.5mb 55f 55f
2:50pm 7ft 11s 7s 18 22 mph 1022.6mb 55f 56f
1:50pm 7ft 8s 7s 16 20 mph 1022.4mb 55f 56f
12:50pm 7ft 12s 7s 16 20 mph 1022.7mb 55f 55f
11:50am 7ft 12s 7s 16 25 mph 1023.5mb 55f 57f
10:50am 7.5ft 12s 7s 16 18 mph 1024mb 55f 57f
9:50am 8ft 10s 7s 16 20 mph 1023.8mb 55f 56f
8:50am 8ft 12s 7s 16 20 mph 1023.8mb 55f 55f
7:50am 8.5ft 9s 7s 22 25 mph 1023.2mb 55f 55f
6:50am 8.5ft 13s 7s 22 25 mph 1022.6mb 55f 54f
5:50am 8ft 11s 7s 22 25 mph 1022.1mb 55f 54f
4:50am 9.5ft 11s 8s 20 25 mph 1021.6mb 55f 54f
3:50am 9ft 13s 8s 18 22 mph 1021.6mb 55f 54f
2:50am 9.5ft 12s 8s 16 22 mph 1021.2mb 55f 54f
1:50am 10ft 14s 8s 18 22 mph 1021.4mb 55f 55f
12:50am 9.5ft 12s 8s 13 18 mph 1021.5mb 55f 55f
Thu 12/01 11:50pm 9.5ft 12s 8s 16 20 mph 1021.5mb 55f 55f
10:50pm 10.5ft 11s 8s 13 18 mph 1021.5mb 55f 55f
9:50pm 10ft 9s 8s 16 18 mph 1021.4mb 55f 54f
8:50pm 10.5ft 13s 8s 20 25 mph 1021mb 55f 55f
7:50pm 10ft 14s 8s 18 22 mph 1020.5mb 55f 55f
6:50pm 9ft 11s 7s 18 25 mph 1020.1mb 56f 55f
5:50pm 10ft 11s 8s 18 22 mph 1020mb 56f 55f
4:50pm 9.5ft 14s 8s 16 20 mph 1019.8mb 56f 55f
3:50pm 10ft 11s 8s 18 22 mph 1019.4mb 56f 55f
2:50pm 10ft 15s 8s 22 27 mph 1019.1mb 56f 55f
1:50pm 9ft 13s 8s 16 20 mph 1019.1mb 56f 54f
12:50pm 9ft 10s 8s 16 20 mph 1019.6mb 56f 53f
11:50am 10ft 13s 8s 13 18 mph 1020.4mb 56f 53f
10:50am 9.5ft 13s 8s 16 18 mph 1020.5mb 55f 53f
8:50am 10ft 12s 8s 13 18 mph 1020.5mb 55f 52f
7:50am 10ft 13s 8s 11 13 mph 1020.3mb 55f 52f
6:50am 9.5ft 11s 8s 16 18 mph 1020.1mb 55f 53f
5:50am 8ft 12s 8s 9 11 mph 1019.4mb 55f 53f
4:50am 9ft 12s 8s 11 13 mph 1019.4mb 56f 53f
3:50am 8.5ft 12s 8s 13 16 mph 1019.7mb 56f 53f
2:50am 8ft 9s 8s 16 18 mph 1019.7mb 56f 54f
1:50am 9ft 9s 8s 13 16 mph 1019.5mb 56f 54f
12:50am 9ft 13s 8s 13 16 mph 1019.6mb 55f 54f
Wed 11/30 11:50pm 8ft 13s 8s 13 18 mph 1019.6mb 55f 54f
10:50pm 8ft 13s 8s 16 18 mph 1019.5mb 56f 54f
9:50pm 8ft 13s 8s 16 18 mph 1019.5mb 56f 55f
8:50pm 8ft 14s 7s 16 18 mph 1019.1mb 56f 55f